createdAt,value
2019-03-21T00:01:30.008Z,10.70
2019-03-21T00:04:03.503Z,10.70
2019-03-21T00:06:33.484Z,10.10
2019-03-21T00:09:05.375Z,8.43
2019-03-21T00:12:08.099Z,8.03
2019-03-21T00:14:50.187Z,9.17
2019-03-21T00:17:26.047Z,8.60
2019-03-21T00:19:55.995Z,8.20
2019-03-21T00:22:25.963Z,8.27
2019-03-21T00:24:55.916Z,8.20
2019-03-21T00:27:25.875Z,8.00
2019-03-21T00:29:55.818Z,8.03
2019-03-21T00:32:25.963Z,8.33
2019-03-21T00:34:55.903Z,9.03
2019-03-21T00:37:25.872Z,8.23
2019-03-21T00:39:55.815Z,8.23
2019-03-21T00:42:25.859Z,8.60
2019-03-21T00:44:55.803Z,8.00
2019-03-21T00:47:25.851Z,8.43
2019-03-21T00:49:55.793Z,8.43
2019-03-21T00:52:25.831Z,7.87
2019-03-21T00:54:56.747Z,7.97
2019-03-21T00:57:26.738Z,8.60
2019-03-21T00:59:56.733Z,7.53
2019-03-21T01:02:26.703Z,7.77
2019-03-21T01:04:56.646Z,8.47
2019-03-21T01:07:26.645Z,8.40
2019-03-21T01:09:56.584Z,7.33
2019-03-21T01:12:26.546Z,7.83
2019-03-21T01:14:56.499Z,7.27
2019-03-21T01:17:26.479Z,8.13
2019-03-21T01:19:56.512Z,7.97
2019-03-21T01:22:26.656Z,8.30
2019-03-21T01:24:56.599Z,7.80
2019-03-21T01:27:26.651Z,8.47
2019-03-21T01:29:57.662Z,9.00
2019-03-21T01:32:27.636Z,8.20
2019-03-21T01:34:57.583Z,8.60
2019-03-21T01:37:27.547Z,7.90
2019-03-21T01:39:58.666Z,9.10
2019-03-21T01:42:28.626Z,7.50
2019-03-21T01:44:58.571Z,8.73
2019-03-21T01:47:28.534Z,8.77
2019-03-21T01:49:58.518Z,8.27
2019-03-21T01:52:28.575Z,8.30
2019-03-21T01:54:58.558Z,8.40
2019-03-21T01:57:28.535Z,7.90
2019-03-21T01:59:58.481Z,8.57
2019-03-21T02:02:29.510Z,8.50
2019-03-21T02:04:59.459Z,9.53
2019-03-21T02:07:29.422Z,7.87
2019-03-21T02:09:59.366Z,8.13
2019-03-21T02:12:29.336Z,7.73
2019-03-21T02:14:59.278Z,8.50
2019-03-21T02:17:30.214Z,8.67
2019-03-21T02:20:00.326Z,8.90
2019-03-21T02:22:30.323Z,8.07
2019-03-21T02:25:00.346Z,8.83
2019-03-21T02:27:30.298Z,7.97
2019-03-21T02:30:00.429Z,7.97
2019-03-21T02:32:30.874Z,8.20
2019-03-21T02:35:00.829Z,8.27
2019-03-21T02:37:30.832Z,8.43
2019-03-21T02:40:00.958Z,8.30
2019-03-21T02:42:32.083Z,8.43
2019-03-21T02:45:08.474Z,7.17
2019-03-21T02:47:33.703Z,8.47
2019-03-21T02:50:05.093Z,8.23
2019-03-21T02:52:35.056Z,8.33
2019-03-21T02:55:07.748Z,7.50
2019-03-21T02:57:37.753Z,7.63
2019-03-21T03:00:19.936Z,8.17
2019-03-21T03:02:50.918Z,7.93
2019-03-21T03:05:23.573Z,8.37
2019-03-21T03:07:53.713Z,8.73
2019-03-21T03:10:32.648Z,8.37
2019-03-21T03:13:02.776Z,8.47
2019-03-21T03:15:34.465Z,8.57
2019-03-21T03:18:07.239Z,8.07
2019-03-21T03:20:37.186Z,8.90
2019-03-21T03:23:07.219Z,8.50
2019-03-21T03:25:38.241Z,8.03
2019-03-21T03:28:11.520Z,8.73
2019-03-21T03:30:42.877Z,8.47
2019-03-21T03:33:13.212Z,8.27
2019-03-21T03:35:43.160Z,8.03
2019-03-21T03:38:13.127Z,8.60
2019-03-21T03:40:45.999Z,8.83
2019-03-21T03:43:15.947Z,8.40
2019-03-21T03:45:45.894Z,8.47
2019-03-21T03:48:15.904Z,8.57
2019-03-21T03:50:45.830Z,9.10
2019-03-21T03:53:15.805Z,8.47
2019-03-21T03:55:46.022Z,7.97
2019-03-21T03:58:22.055Z,9.03
2019-03-21T04:00:52.134Z,8.33
2019-03-21T04:03:22.242Z,9.00
2019-03-21T04:05:52.201Z,8.53
2019-03-21T04:08:22.227Z,8.50
2019-03-21T04:10:55.332Z,8.63
2019-03-21T04:13:25.469Z,8.27
2019-03-21T04:15:55.426Z,9.03
2019-03-21T04:18:25.863Z,9.20
2019-03-21T04:21:01.816Z,8.67
2019-03-21T04:23:31.784Z,8.50
2019-03-21T04:26:05.035Z,9.37
2019-03-21T04:28:35.419Z,9.07
2019-03-21T04:31:05.367Z,8.60
2019-03-21T04:33:35.333Z,8.87
2019-03-21T04:36:05.275Z,8.10
2019-03-21T04:38:35.246Z,8.53
2019-03-21T04:41:05.196Z,9.17
2019-03-21T04:43:35.163Z,8.60
2019-03-21T04:46:05.116Z,8.53
2019-03-21T04:48:35.072Z,9.33
2019-03-21T04:51:05.019Z,8.63
2019-03-21T04:53:34.995Z,9.27
2019-03-21T04:56:04.935Z,8.50
2019-03-21T04:58:34.974Z,8.83
2019-03-21T05:01:05.992Z,8.87
2019-03-21T05:03:35.956Z,8.63
2019-03-21T05:06:05.970Z,9.77
2019-03-21T05:08:35.935Z,9.63
2019-03-21T05:11:05.880Z,9.70
2019-03-21T05:13:35.847Z,9.63
2019-03-21T05:16:14.290Z,10.27
2019-03-21T05:18:52.310Z,10.13
2019-03-21T05:21:24.372Z,9.40
2019-03-21T05:23:54.351Z,10.70
2019-03-21T05:26:24.299Z,10.77
2019-03-21T05:28:54.283Z,10.27
2019-03-21T05:31:27.647Z,10.80
2019-03-21T05:33:57.618Z,10.73
2019-03-21T05:36:27.566Z,9.60
2019-03-21T05:38:57.535Z,9.87
2019-03-21T05:41:28.551Z,10.07
2019-03-21T05:44:04.250Z,8.63
2019-03-21T05:46:34.199Z,8.53
2019-03-21T05:49:04.166Z,8.83
2019-03-21T05:51:34.111Z,9.30
2019-03-21T05:54:04.151Z,9.10
2019-03-21T05:56:34.090Z,8.60
2019-03-21T05:59:04.064Z,8.97
2019-03-21T06:01:34.067Z,9.20
2019-03-21T06:04:05.197Z,10.20
2019-03-21T06:06:52.803Z,9.77
2019-03-21T06:09:23.139Z,9.60
2019-03-21T06:11:59.058Z,8.57
2019-03-21T06:14:31.530Z,8.20
2019-03-21T06:17:01.480Z,9.40
2019-03-21T06:19:37.299Z,9.03
2019-03-21T06:22:19.195Z,8.63
2019-03-21T06:25:15.748Z,9.37
2019-03-21T06:27:44.730Z,9.40
2019-03-21T06:30:14.771Z,9.77
2019-03-21T06:32:44.723Z,9.57
2019-03-21T06:35:19.808Z,9.50
2019-03-21T06:37:49.754Z,10.40
2019-03-21T06:40:19.734Z,10.13
2019-03-21T06:42:49.751Z,10.00
2019-03-21T06:45:20.290Z,10.43
2019-03-21T06:47:52.905Z,10.60
2019-03-21T06:50:22.105Z,9.17
2019-03-21T06:52:52.049Z,9.60
2019-03-21T06:55:22.015Z,10.77
2019-03-21T06:57:51.963Z,9.40
2019-03-21T07:00:25.037Z,9.40
2019-03-21T07:02:54.719Z,11.30
2019-03-21T07:05:26.648Z,9.57
2019-03-21T07:07:56.330Z,10.67
2019-03-21T07:10:26.311Z,11.20
2019-03-21T07:12:56.259Z,10.83
2019-03-21T07:15:26.236Z,9.70
2019-03-21T07:17:56.182Z,10.00
2019-03-21T07:20:26.411Z,10.00
2019-03-21T07:22:56.364Z,10.40
2019-03-21T07:25:26.343Z,10.40
2019-03-21T07:27:56.354Z,9.83
2019-03-21T07:30:26.399Z,10.40
2019-03-21T07:32:57.002Z,10.27
2019-03-21T07:35:27.045Z,9.90
2019-03-21T07:37:57.172Z,9.93
2019-03-21T07:40:27.161Z,10.60
2019-03-21T07:42:57.122Z,10.60
2019-03-21T07:45:27.379Z,10.30
2019-03-21T07:47:57.899Z,10.67
2019-03-21T07:50:27.874Z,11.23
2019-03-21T07:52:58.223Z,12.60
2019-03-21T07:55:28.200Z,12.30
2019-03-21T07:57:59.537Z,11.67
2019-03-21T08:00:30.151Z,12.33
2019-03-21T08:03:00.026Z,12.80
2019-03-21T08:05:39.794Z,12.23
2019-03-21T08:08:02.350Z,12.53
2019-03-21T08:10:33.703Z,12.57
2019-03-21T08:13:03.769Z,13.73
2019-03-21T08:15:33.747Z,14.23
2019-03-21T08:18:03.698Z,13.97
2019-03-21T08:20:33.675Z,14.03
2019-03-21T08:23:03.618Z,13.93
2019-03-21T08:25:33.595Z,13.97
2019-03-21T08:28:03.721Z,14.73
2019-03-21T08:30:37.577Z,13.57
2019-03-21T08:33:07.518Z,13.63
2019-03-21T08:35:37.628Z,14.77
2019-03-21T08:38:07.643Z,14.27
2019-03-21T08:40:37.623Z,14.80
2019-03-21T08:43:07.583Z,15.23
2019-03-21T08:45:37.563Z,16.00
2019-03-21T08:48:07.521Z,14.60
2019-03-21T08:50:37.499Z,16.50
2019-03-21T08:53:07.454Z,16.10
2019-03-21T08:55:37.919Z,16.83
2019-03-21T08:58:07.939Z,17.93
2019-03-21T09:00:37.923Z,17.80
2019-03-21T09:03:07.891Z,17.90
2019-03-21T09:05:37.875Z,18.13
2019-03-21T09:08:07.834Z,18.27
2019-03-21T09:10:37.820Z,18.93
2019-03-21T09:13:07.791Z,18.23
2019-03-21T09:15:38.043Z,19.70
2019-03-21T09:18:08.003Z,20.40
2019-03-21T09:20:37.997Z,19.07
2019-03-21T09:23:07.951Z,22.00
2019-03-21T09:25:37.959Z,20.47
2019-03-21T09:28:07.915Z,21.97
2019-03-21T09:30:37.903Z,21.30
2019-03-21T09:33:07.862Z,20.53
2019-03-21T09:35:37.843Z,22.73
2019-03-21T09:38:07.830Z,21.80
2019-03-21T09:40:37.863Z,22.47
2019-03-21T09:43:07.879Z,21.97
2019-03-21T09:45:37.859Z,21.13
2019-03-21T09:48:07.911Z,21.10
2019-03-21T09:50:37.937Z,19.60
2019-03-21T09:53:07.915Z,21.43
2019-03-21T09:55:37.873Z,20.37
2019-03-21T09:58:07.929Z,21.03
2019-03-21T10:00:38.018Z,20.67
2019-03-21T10:03:07.955Z,22.23
2019-03-21T10:05:37.907Z,19.17
2019-03-21T10:08:07.955Z,18.90
2019-03-21T10:10:37.913Z,19.00
2019-03-21T10:13:07.889Z,19.83
2019-03-21T10:15:37.848Z,18.23
2019-03-21T10:18:07.830Z,18.00
2019-03-21T10:20:37.787Z,18.40
2019-03-21T10:23:07.782Z,19.43
2019-03-21T10:25:37.734Z,19.27
2019-03-21T10:28:07.719Z,18.83
2019-03-21T10:30:41.890Z,18.60
2019-03-21T10:33:13.133Z,18.30
2019-03-21T10:35:43.092Z,21.07
2019-03-21T10:38:14.397Z,19.77
2019-03-21T10:40:44.530Z,21.17
2019-03-21T10:43:14.520Z,19.40
2019-03-21T10:45:44.479Z,20.50
2019-03-21T10:48:14.467Z,19.53
2019-03-21T10:50:44.498Z,18.40
2019-03-21T10:53:14.479Z,19.77
2019-03-21T10:55:44.436Z,19.97
2019-03-21T10:58:14.423Z,20.60
2019-03-21T11:00:44.376Z,19.77
2019-03-21T11:03:14.359Z,17.90
2019-03-21T11:05:44.322Z,18.47
2019-03-21T11:08:14.319Z,20.47
2019-03-21T11:10:46.112Z,19.73
2019-03-21T11:13:15.897Z,20.80
2019-03-21T11:15:45.860Z,20.03
2019-03-21T11:18:15.839Z,17.77
2019-03-21T11:20:45.807Z,16.50
2019-03-21T11:23:15.869Z,17.73
2019-03-21T11:25:45.821Z,19.00
2019-03-21T11:28:17.785Z,14.60
2019-03-21T11:30:47.633Z,12.07
2019-03-21T11:33:17.616Z,12.87
2019-03-21T11:35:47.570Z,13.20
2019-03-21T11:38:17.554Z,13.07
2019-03-21T11:40:48.614Z,12.13
2019-03-21T11:43:18.698Z,11.53
2019-03-21T11:45:48.810Z,13.30
2019-03-21T11:48:18.744Z,13.80
2019-03-21T11:50:48.728Z,13.30
2019-03-21T11:53:18.684Z,13.20
2019-03-21T11:55:48.668Z,13.67
2019-03-21T11:58:19.696Z,16.50
2019-03-21T12:00:49.676Z,14.97
2019-03-21T12:03:19.639Z,13.33
2019-03-21T12:05:49.619Z,12.67
2019-03-21T12:08:19.579Z,13.87
2019-03-21T12:10:49.559Z,14.57
2019-03-21T12:13:19.509Z,14.27
2019-03-21T12:15:49.499Z,15.27
2019-03-21T12:18:19.466Z,15.73
2019-03-21T12:20:50.363Z,15.37
2019-03-21T12:23:20.318Z,15.73
2019-03-21T12:25:50.304Z,15.93
2019-03-21T12:28:20.295Z,16.43
2019-03-21T12:30:50.285Z,16.43
2019-03-21T12:33:20.240Z,17.53
2019-03-21T12:35:50.645Z,17.97
2019-03-21T12:38:20.583Z,17.33
2019-03-21T12:40:50.571Z,16.07
2019-03-21T12:43:20.518Z,16.03
2019-03-21T12:45:50.504Z,17.27
2019-03-21T12:48:20.541Z,16.17
2019-03-21T12:50:50.583Z,16.47
2019-03-21T12:53:20.571Z,16.30
2019-03-21T12:55:50.558Z,17.03
2019-03-21T12:58:20.607Z,16.43
2019-03-21T13:00:50.659Z,16.13
2019-03-21T13:03:20.650Z,15.77
2019-03-21T13:05:50.643Z,16.57
2019-03-21T13:08:20.599Z,17.37
2019-03-21T13:10:50.647Z,17.50
2019-03-21T13:13:20.599Z,16.03
2019-03-21T13:15:50.566Z,16.83
2019-03-21T13:18:20.562Z,15.73
2019-03-21T13:20:50.525Z,13.50
2019-03-21T13:23:20.514Z,15.03
2019-03-21T13:25:50.467Z,15.80
2019-03-21T13:28:20.448Z,15.77
2019-03-21T13:30:50.410Z,15.40
2019-03-21T13:33:20.395Z,16.77
2019-03-21T13:35:50.364Z,16.23
2019-03-21T13:38:20.506Z,16.00
2019-03-21T13:40:50.478Z,15.20
2019-03-21T13:43:20.454Z,15.63
2019-03-21T13:45:50.539Z,16.13
2019-03-21T13:48:20.590Z,16.10
2019-03-21T13:50:50.551Z,15.53
2019-03-21T13:53:20.632Z,15.47
2019-03-21T13:55:50.592Z,15.90
2019-03-21T13:58:20.730Z,14.47
2019-03-21T14:00:50.746Z,16.27
2019-03-21T14:03:25.269Z,15.60
2019-03-21T14:05:52.376Z,14.87
2019-03-21T14:08:22.359Z,14.80
2019-03-21T14:10:52.319Z,15.50
2019-03-21T14:13:22.302Z,14.77
2019-03-21T14:15:52.263Z,14.50
2019-03-21T14:18:22.247Z,13.90
2019-03-21T14:20:52.199Z,14.60
2019-03-21T14:23:22.178Z,13.33
2019-03-21T14:25:52.135Z,14.63
2019-03-21T14:28:22.115Z,14.33
2019-03-21T14:30:52.074Z,13.37
2019-03-21T14:33:22.060Z,13.70
2019-03-21T14:35:52.126Z,14.83
2019-03-21T14:38:26.265Z,14.13
2019-03-21T14:40:53.899Z,15.60
2019-03-21T14:43:23.888Z,15.40
2019-03-21T14:45:53.843Z,15.03
2019-03-21T14:48:23.827Z,15.27
2019-03-21T14:50:53.790Z,15.97
2019-03-21T14:53:28.860Z,16.37
2019-03-21T14:55:55.356Z,16.10
2019-03-21T14:58:25.341Z,15.83
2019-03-21T15:00:55.299Z,14.67
2019-03-21T15:03:25.283Z,15.20
2019-03-21T15:05:55.314Z,13.93
2019-03-21T15:08:25.360Z,13.47
2019-03-21T15:10:55.337Z,15.47
2019-03-21T15:13:25.389Z,15.43
2019-03-21T15:15:55.486Z,14.17
2019-03-21T15:18:25.531Z,15.33
2019-03-21T15:20:55.483Z,14.30
2019-03-21T15:23:26.047Z,15.77
2019-03-21T15:25:56.271Z,14.83
2019-03-21T15:28:26.412Z,16.07
2019-03-21T15:30:56.372Z,14.33
2019-03-21T15:33:26.355Z,15.77
2019-03-21T15:35:56.308Z,15.23
2019-03-21T15:38:27.744Z,14.00
2019-03-21T15:40:57.859Z,14.83
2019-03-21T15:43:27.847Z,15.47
2019-03-21T15:45:57.871Z,14.67
2019-03-21T15:48:29.014Z,15.67
2019-03-21T15:51:04.383Z,14.30
2019-03-21T15:53:30.579Z,18.73
2019-03-21T15:56:00.535Z,16.20
2019-03-21T15:58:30.520Z,15.73
2019-03-21T16:01:00.483Z,15.30
2019-03-21T16:03:30.826Z,14.53
2019-03-21T16:06:00.794Z,14.57
2019-03-21T16:08:30.981Z,15.30
2019-03-21T16:11:00.894Z,14.47
2019-03-21T16:13:30.871Z,14.43
2019-03-21T16:16:00.827Z,14.07
2019-03-21T16:18:30.815Z,13.50
2019-03-21T16:21:00.779Z,15.13
2019-03-21T16:23:30.759Z,15.00
2019-03-21T16:26:00.743Z,15.30
2019-03-21T16:28:30.703Z,17.63
2019-03-21T16:31:00.698Z,15.93
2019-03-21T16:33:30.753Z,16.63
2019-03-21T16:36:00.723Z,15.33
2019-03-21T16:38:30.675Z,15.23
2019-03-21T16:41:00.655Z,15.50
2019-03-21T16:43:30.610Z,15.27
2019-03-21T16:46:00.659Z,15.37
2019-03-21T16:48:31.683Z,15.97
2019-03-21T16:51:03.026Z,17.10
2019-03-21T16:53:33.223Z,16.17
2019-03-21T16:56:03.206Z,21.47
2019-03-21T16:58:34.221Z,23.40
2019-03-21T17:01:04.266Z,39.23
2019-03-21T17:03:34.230Z,35.97
2019-03-21T17:06:04.275Z,32.20
2019-03-21T17:08:34.236Z,31.00
2019-03-21T17:11:04.307Z,30.53
2019-03-21T17:13:34.251Z,29.23
2019-03-21T17:16:05.706Z,29.60
2019-03-21T17:18:35.903Z,30.23
2019-03-21T17:21:06.011Z,32.70
2019-03-21T17:23:35.983Z,33.33
2019-03-21T17:26:05.970Z,36.37
2019-03-21T17:28:35.914Z,34.80
2019-03-21T17:31:06.031Z,36.40
2019-03-21T17:33:35.983Z,39.03
2019-03-21T17:36:05.971Z,37.53
2019-03-21T17:38:35.927Z,37.57
2019-03-21T17:41:05.975Z,36.27
2019-03-21T17:43:35.922Z,38.70
2019-03-21T17:46:06.867Z,38.50
2019-03-21T17:48:36.836Z,37.00
2019-03-21T17:51:06.821Z,34.07
2019-03-21T17:53:36.775Z,34.20
2019-03-21T17:56:07.718Z,33.23
2019-03-21T17:58:37.679Z,29.07
2019-03-21T18:01:07.735Z,27.90
2019-03-21T18:03:37.690Z,27.53
2019-03-21T18:06:07.667Z,23.97
2019-03-21T18:08:37.627Z,21.37
2019-03-21T18:11:07.618Z,18.03
2019-03-21T18:13:37.566Z,17.83
2019-03-21T18:16:07.564Z,17.33
2019-03-21T18:18:38.584Z,15.60
2019-03-21T18:21:08.567Z,16.23
2019-03-21T18:23:39.598Z,16.03
2019-03-21T18:26:09.579Z,16.60
2019-03-21T18:28:39.598Z,14.57
2019-03-21T18:31:09.651Z,15.13
2019-03-21T18:33:39.687Z,17.20
2019-03-21T18:36:10.664Z,17.10
2019-03-21T18:38:41.261Z,17.00
2019-03-21T18:41:11.238Z,16.33
2019-03-21T18:43:41.212Z,17.63
2019-03-21T18:46:11.238Z,16.13
2019-03-21T18:48:41.335Z,16.50
2019-03-21T18:51:11.309Z,18.10
2019-03-21T18:53:41.407Z,15.07
2019-03-21T18:56:11.362Z,16.00
2019-03-21T18:58:41.374Z,15.17
2019-03-21T19:01:11.295Z,16.00
2019-03-21T19:03:41.336Z,14.60
2019-03-21T19:06:11.284Z,15.33
2019-03-21T19:08:41.254Z,15.17
2019-03-21T19:11:12.251Z,15.50
2019-03-21T19:13:42.231Z,15.20
2019-03-21T19:16:12.174Z,16.23
2019-03-21T19:18:42.154Z,17.13
2019-03-21T19:21:12.104Z,15.90
2019-03-21T19:23:42.079Z,14.93
2019-03-21T19:26:12.034Z,13.30
2019-03-21T19:28:42.079Z,15.53
2019-03-21T19:31:13.099Z,13.87
2019-03-21T19:33:43.065Z,14.47
2019-03-21T19:36:13.015Z,14.50
2019-03-21T19:38:42.986Z,14.33
2019-03-21T19:41:12.943Z,14.40
2019-03-21T19:43:42.984Z,14.83
2019-03-21T19:46:12.930Z,14.70
2019-03-21T19:48:50.086Z,15.80
2019-03-21T19:51:14.479Z,14.67
2019-03-21T19:53:44.455Z,16.10
2019-03-21T19:56:14.398Z,16.73
2019-03-21T19:58:44.369Z,16.93
2019-03-21T20:01:14.315Z,16.53
2019-03-21T20:03:44.287Z,16.90
2019-03-21T20:06:14.237Z,15.30
2019-03-21T20:08:44.211Z,17.23
2019-03-21T20:11:14.231Z,19.50
2019-03-21T20:13:45.464Z,17.90
2019-03-21T20:16:15.423Z,18.50
2019-03-21T20:18:45.559Z,16.30
2019-03-21T20:21:15.587Z,16.53
2019-03-21T20:23:45.627Z,15.47
2019-03-21T20:26:15.647Z,15.67
2019-03-21T20:28:45.631Z,16.33
2019-03-21T20:31:15.583Z,15.70
2019-03-21T20:33:45.554Z,16.60
2019-03-21T20:36:15.505Z,16.63
2019-03-21T20:38:45.543Z,16.20
2019-03-21T20:41:15.515Z,15.07
2019-03-21T20:43:45.482Z,14.60
2019-03-21T20:46:15.431Z,14.80
2019-03-21T20:48:44.324Z,14.60
2019-03-21T20:51:15.257Z,14.30
2019-03-21T20:53:45.223Z,13.47
2019-03-21T20:56:16.147Z,13.33
2019-03-21T20:58:46.182Z,13.77
2019-03-21T21:01:16.145Z,13.77
2019-03-21T21:03:46.211Z,22.47
2019-03-21T21:06:16.163Z,19.90
2019-03-21T21:08:46.151Z,19.60
2019-03-21T21:11:16.111Z,18.27
2019-03-21T21:13:46.082Z,16.17
2019-03-21T21:16:16.038Z,17.37
2019-03-21T21:18:46.019Z,17.60
2019-03-21T21:21:15.976Z,16.97
2019-03-21T21:23:46.056Z,18.30
2019-03-21T21:26:16.074Z,17.17
2019-03-21T21:28:46.023Z,16.57
2019-03-21T21:31:15.999Z,18.50
2019-03-21T21:33:45.959Z,18.62
2019-03-21T21:36:21.852Z,21.57
2019-03-21T21:38:47.510Z,19.77
2019-03-21T21:41:17.483Z,20.37
2019-03-21T21:43:47.430Z,18.40
2019-03-21T21:46:17.403Z,18.73
2019-03-21T21:48:47.351Z,17.53
2019-03-21T21:51:17.324Z,17.73
2019-03-21T21:53:48.283Z,18.23
2019-03-21T21:56:18.250Z,19.53
2019-03-21T21:58:48.203Z,19.17
2019-03-21T22:01:18.170Z,18.37
2019-03-21T22:03:48.114Z,18.10
2019-03-21T22:06:18.095Z,17.23
2019-03-21T22:08:48.046Z,16.50
2019-03-21T22:11:18.024Z,17.80
2019-03-21T22:13:47.975Z,16.10
2019-03-21T22:16:17.942Z,16.70
2019-03-21T22:18:47.902Z,15.33
2019-03-21T22:21:17.871Z,14.70
2019-03-21T22:23:48.907Z,14.10
2019-03-21T22:26:29.093Z,15.10
2019-03-21T22:28:50.460Z,14.83
2019-03-21T22:31:20.434Z,15.47
2019-03-21T22:33:50.387Z,13.80
2019-03-21T22:36:20.363Z,15.07
2019-03-21T22:38:50.318Z,14.23
2019-03-21T22:41:20.297Z,14.80
2019-03-21T22:43:50.247Z,14.53
2019-03-21T22:46:20.225Z,14.50
2019-03-21T22:48:50.175Z,15.13
2019-03-21T22:51:20.143Z,15.53
2019-03-21T22:53:50.095Z,15.27
2019-03-21T22:56:20.072Z,16.33
2019-03-21T22:58:50.026Z,16.10
2019-03-21T23:01:20.937Z,16.87
2019-03-21T23:03:50.885Z,16.73
2019-03-21T23:06:20.855Z,16.67
2019-03-21T23:08:50.802Z,18.93
2019-03-21T23:11:20.803Z,17.37
2019-03-21T23:13:52.355Z,18.07
2019-03-21T23:16:22.328Z,18.40
2019-03-21T23:18:52.274Z,17.50
2019-03-21T23:21:22.246Z,17.23
2019-03-21T23:23:52.237Z,18.03
2019-03-21T23:26:22.223Z,19.30
2019-03-21T23:28:52.274Z,19.40
2019-03-21T23:31:22.264Z,17.20
2019-03-21T23:33:52.418Z,17.37
2019-03-21T23:36:23.333Z,17.57
2019-03-21T23:38:53.305Z,18.80
2019-03-21T23:41:23.255Z,17.33
2019-03-21T23:43:53.233Z,16.80
2019-03-21T23:46:23.185Z,17.57
2019-03-21T23:48:53.156Z,16.30
2019-03-21T23:51:23.670Z,18.50
2019-03-21T23:53:53.656Z,18.43
2019-03-21T23:56:23.602Z,16.30
2019-03-21T23:58:53.575Z,16.37
